Etusivu
METAR-TAF:

METAR-TAF

Lentoasemat :

Kōbe, Japani

Leveyspiiri: 34-37-58N, Pituuspiiri: 135-13-26E, korkeus merenpinnasta: 7 m

Tämänhetkinen sää

Tämä raportti tehtiin 22 minuuttia sitten, kello 12.00 UTC
Tuuli 19 kn etelästä/lounaasta
Lämpötila 20°C
Kosteus 73%
Ilmanpaine 1014 hPa
Näkyvyys 10 km tai enemmän
Muutamia pilviä 2500 ft:n korkeudessa
Hajanaisia pilviä 6000 ft:n korkeudessa
Hajonneita pilviä 11000 ft:n korkeudessa

METAR: RJBE 131200Z 20019KT 9999 FEW025 SCT060 BKN110 20/15 Q1014

Aika: 21:22 (12:22 UTC)


TAF: puuttuu

Säähavainnot ja -ennusteet yli 4000 lentoasemalta (METAR- ja TAF-raportit).

Käytössä olevat sääasemat on merkitty karttaan keltaisilla ja punaisilla pisteillä.

Aseta hiiri pisteen päälle nähdäksesi sääaseman nimen.

Klikkaa sitten nähdäksesi säähavainnot ja -ennusteet.

Kartan vaihtaminen: klikkaa mustalla rastilla varustettuja vihreitä pisteitä, niin voit zoomata sisään; viivalla varustettua vihreää pistettä, niin voit zoomata ulos tai vihreitä nuolia, niin pääset viereisille kartoille.


METAR-TAF: